Time;durP1;ratioP1;P1;durP2;ratioP2;P2;SDS_P1;SDS_P2;PMS_P1;PMS_P2;Temp;Humidity;BMP_temperature;BMP_pressure;BME280_temperature;BME280_humidity;BME280_pressure;Samples;Min_cycle;Max_cycle;Signal;HPM_P1;HPM_P2
2023/03/01 00:00:46;;;;;;;39.35;9.02;;;;;;;;;;5032572;28;20521;-48
2023/03/01 00:03:13;;;;;;;54.28;9.50;;;;;;;;;;5030172;28;20040;-46
2023/03/01 00:05:47;;;;;;;39.08;8.95;;;;;;;;;;5029918;28;20131;-47
2023/03/01 00:08:14;;;;;;;37.75;8.30;;;;;;;;;;5041553;28;20036;-44
2023/03/01 00:10:41;;;;;;;36.58;8.65;;;;;;;;;;5047383;28;20181;-51
2023/03/01 00:13:08;;;;;;;34.03;8.80;;;;;;;;;;5032720;28;20072;-50
2023/03/01 00:15:39;;;;;;;35.08;8.70;;;;;;;;;;4944846;28;2395718;-48
2023/03/01 00:18:06;;;;;;;35.03;8.30;;;;;;;;;;5030703;28;20419;-43
2023/03/01 00:20:33;;;;;;;36.90;9.23;;;;;;;;;;5030019;28;20041;-49
2023/03/01 00:23:00;;;;;;;41.17;9.30;;;;;;;;;;5030755;28;20360;-53
2023/03/01 00:25:27;;;;;;;45.85;12.23;;;;;;;;;;5031045;28;20034;-53
2023/03/01 00:27:54;;;;;;;69.00;16.17;;;;;;;;;;5048643;28;20040;-51
2023/03/01 00:30:22;;;;;;;75.40;19.48;;;;;;;;;;5033535;28;20072;-50
2023/03/01 00:32:49;;;;;;;60.35;17.23;;;;;;;;;;5050682;28;20024;-53
2023/03/01 00:35:16;;;;;;;60.05;17.02;;;;;;;;;;5051631;28;20502;-47
2023/03/01 00:37:43;;;;;;;59.50;16.38;;;;;;;;;;5051510;28;20039;-50
2023/03/01 00:40:10;;;;;;;74.50;22.92;;;;;;;;;;5051509;28;20060;-53
2023/03/01 00:42:37;;;;;;;69.65;23.95;;;;;;;;;;5051499;28;20032;-52
2023/03/01 00:45:05;;;;;;;77.15;21.13;;;;;;;;;;5051625;28;20074;-53
2023/03/01 00:47:32;;;;;;;69.53;19.83;;;;;;;;;;5051577;28;20045;-49
2023/03/01 00:49:59;;;;;;;66.57;18.75;;;;;;;;;;5051464;28;20033;-49
2023/03/01 00:52:26;;;;;;;56.20;15.75;;;;;;;;;;5051251;28;20025;-48
2023/03/01 00:54:53;;;;;;;55.83;15.57;;;;;;;;;;5050982;28;20037;-55
2023/03/01 00:57:20;;;;;;;45.60;13.80;;;;;;;;;;5051551;28;20052;-51
2023/03/01 00:59:47;;;;;;;39.42;13.07;;;;;;;;;;5050730;28;20028;-51
2023/03/01 01:02:14;;;;;;;42.97;12.68;;;;;;;;;;5030972;28;20082;-49
2023/03/01 01:04:42;;;;;;;49.80;12.75;;;;;;;;;;5046002;28;20134;-52
2023/03/01 01:07:09;;;;;;;35.28;12.00;;;;;;;;;;5050905;28;20044;-52
2023/03/01 01:09:36;;;;;;;36.15;10.70;;;;;;;;;;5041553;28;20060;-48
2023/03/01 01:12:03;;;;;;;38.10;11.63;;;;;;;;;;5044492;28;20037;-51
2023/03/01 01:14:30;;;;;;;40.95;10.80;;;;;;;;;;5047431;28;20029;-53
2023/03/01 01:16:57;;;;;;;38.03;10.50;;;;;;;;;;5050824;28;20048;-50
2023/03/01 01:19:25;;;;;;;29.83;9.80;;;;;;;;;;5047935;28;20052;-47
2023/03/01 01:21:52;;;;;;;37.97;10.10;;;;;;;;;;5030537;28;20033;-45
2023/03/01 01:24:19;;;;;;;33.28;10.05;;;;;;;;;;5012071;28;20390;-47
2023/03/01 01:26:46;;;;;;;27.52;10.10;;;;;;;;;;5044348;28;20037;-44
2023/03/01 01:29:13;;;;;;;26.98;9.68;;;;;;;;;;5050987;28;20068;-48
2023/03/01 01:31:41;;;;;;;30.95;8.85;;;;;;;;;;5050763;28;20032;-44
2023/03/01 01:34:09;;;;;;;31.80;10.02;;;;;;;;;;5051085;28;20029;-45
2023/03/01 01:36:36;;;;;;;28.90;9.00;;;;;;;;;;5050927;28;20048;-47
2023/03/01 01:39:03;;;;;;;28.13;8.90;;;;;;;;;;5050924;28;20040;-43
2023/03/01 01:41:31;;;;;;;31.23;9.10;;;;;;;;;;5039165;28;20503;-45
2023/03/01 01:44:10;;;;;;;23.63;8.77;;;;;;;;;;5017094;28;20124;-45
2023/03/01 01:46:42;;;;;;;25.88;8.02;;;;;;;;;;5039257;28;20033;-44
2023/03/01 01:49:08;;;;;;;;;;;;;;;;;;5050612;28;20039;-44
2023/03/01 01:51:41;;;;;;;31.45;8.55;;;;;;;;;;5049634;28;19927;-43
2023/03/01 01:54:16;;;;;;;23.55;7.40;;;;;;;;;;5047517;28;20033;-45
2023/03/01 01:56:46;;;;;;;23.67;8.23;;;;;;;;;;5047044;28;20398;-43
2023/03/01 01:59:13;;;;;;;20.98;7.97;;;;;;;;;;5049465;28;20021;-45
2023/03/01 02:01:40;;;;;;;24.52;8.32;;;;;;;;;;5049335;28;20103;-43
2023/03/01 02:04:07;;;;;;;26.92;8.48;;;;;;;;;;5049449;28;20031;-43
2023/03/01 02:06:40;;;;;;;23.00;7.72;;;;;;;;;;5050528;28;20029;-43
2023/03/01 02:09:14;;;;;;;32.42;8.50;;;;;;;;;;5050554;28;20040;-43
2023/03/01 02:11:41;;;;;;;17.50;7.57;;;;;;;;;;5050791;28;20029;-43
2023/03/01 02:14:08;;;;;;;24.15;7.38;;;;;;;;;;5050688;28;20029;-43
2023/03/01 02:16:35;;;;;;;20.80;7.68;;;;;;;;;;5050614;28;20059;-43
2023/03/01 02:19:04;;;;;;;21.17;7.40;;;;;;;;;;5032882;28;20160;-44
2023/03/01 02:21:38;;;;;;;21.63;7.75;;;;;;;;;;5050670;28;20095;-44
2023/03/01 02:24:20;;;;;;;18.80;7.28;;;;;;;;;;5050644;28;20116;-44
2023/03/01 02:26:49;;;;;;;20.13;7.22;;;;;;;;;;5054488;28;20021;-44
2023/03/01 02:29:16;;;;;;;19.02;7.13;;;;;;;;;;5054758;28;20032;-44
2023/03/01 02:31:44;;;;;;;17.17;6.75;;;;;;;;;;5054795;28;20032;-44
2023/03/01 02:34:16;;;;;;;23.77;7.55;;;;;;;;;;5054443;28;20083;-46
2023/03/01 02:36:46;;;;;;;23.70;7.45;;;;;;;;;;5054695;28;20033;-45
2023/03/01 02:39:16;;;;;;;23.60;7.63;;;;;;;;;;5034708;28;20033;-44
2023/03/01 02:41:45;;;;;;;21.25;7.50;;;;;;;;;;5034436;28;20033;-44
2023/03/01 02:44:12;;;;;;;16.00;7.40;;;;;;;;;;5034468;28;20060;-46
2023/03/01 02:46:49;;;;;;;19.65;6.85;;;;;;;;;;5034464;28;20033;-44
2023/03/01 02:49:22;;;;;;;15.52;6.75;;;;;;;;;;5034328;28;20040;-45
2023/03/01 02:51:52;;;;;;;14.93;6.50;;;;;;;;;;5034472;28;20057;-44
2023/03/01 02:54:22;;;;;;;20.42;7.47;;;;;;;;;;5034246;28;20025;-44
2023/03/01 02:56:49;;;;;;;20.48;6.70;;;;;;;;;;5034293;28;20037;-47
2023/03/01 02:59:19;;;;;;;18.25;6.28;;;;;;;;;;5033942;28;20556;-43
2023/03/01 03:01:46;;;;;;;11.70;5.97;;;;;;;;;;5034148;28;20083;-44
2023/03/01 03:04:18;;;;;;;16.05;6.95;;;;;;;;;;5034113;28;20104;-44
2023/03/01 03:06:46;;;;;;;17.27;6.25;;;;;;;;;;5034171;28;20048;-44
2023/03/01 03:09:13;;;;;;;16.48;6.75;;;;;;;;;;5034096;28;20112;-45
2023/03/01 03:11:41;;;;;;;14.07;6.07;;;;;;;;;;5034057;28;20040;-43
2023/03/01 03:14:14;;;;;;;14.10;6.13;;;;;;;;;;5033788;28;20037;-44
2023/03/01 03:16:43;;;;;;;15.93;6.40;;;;;;;;;;5033779;28;20053;-45
2023/03/01 03:19:10;;;;;;;14.05;6.28;;;;;;;;;;5033825;28;20388;-44
2023/03/01 03:21:37;;;;;;;13.52;5.93;;;;;;;;;;5033863;28;20041;-44
2023/03/01 03:24:05;;;;;;;13.93;6.05;;;;;;;;;;5033827;28;20034;-43
2023/03/01 03:26:32;;;;;;;17.05;6.35;;;;;;;;;;5033633;28;20815;-44
2023/03/01 03:28:59;;;;;;;14.02;6.70;;;;;;;;;;5033684;28;20022;-44
2023/03/01 03:31:26;;;;;;;13.93;5.85;;;;;;;;;;5033789;28;20491;-44
2023/03/01 03:33:53;;;;;;;14.07;6.07;;;;;;;;;;5033555;28;20033;-44
2023/03/01 03:36:21;;;;;;;14.23;5.88;;;;;;;;;;5033241;28;20022;-44
2023/03/01 03:38:49;;;;;;;13.48;6.38;;;;;;;;;;5032935;28;20052;-44
2023/03/01 03:41:16;;;;;;;13.10;5.95;;;;;;;;;;5033558;28;20029;-44
2023/03/01 03:43:43;;;;;;;13.75;6.13;;;;;;;;;;5033449;28;20029;-44
2023/03/01 03:46:11;;;;;;;15.00;5.97;;;;;;;;;;5033446;28;20075;-43
2023/03/01 03:48:40;;;;;;;13.77;6.28;;;;;;;;;;5033269;28;20041;-45
2023/03/01 03:51:08;;;;;;;13.27;6.00;;;;;;;;;;5033350;28;20030;-45
2023/03/01 03:53:35;;;;;;;11.57;5.35;;;;;;;;;;5033254;28;20018;-44
2023/03/01 03:56:02;;;;;;;13.13;5.97;;;;;;;;;;5033201;28;20431;-47
2023/03/01 03:58:29;;;;;;;12.25;5.95;;;;;;;;;;5033236;28;20042;-44
2023/03/01 04:00:57;;;;;;;14.45;5.97;;;;;;;;;;5033038;28;20053;-44
2023/03/01 04:03:26;;;;;;;12.98;5.35;;;;;;;;;;5033033;28;20026;-43
2023/03/01 04:05:53;;;;;;;15.23;5.90;;;;;;;;;;5033108;28;20106;-44
2023/03/01 04:08:21;;;;;;;13.77;5.72;;;;;;;;;;5032910;28;20110;-45
2023/03/01 04:10:49;;;;;;;13.75;5.70;;;;;;;;;;5033034;28;20081;-44
2023/03/01 04:13:18;;;;;;;12.40;5.70;;;;;;;;;;5032854;28;20017;-44
2023/03/01 04:15:45;;;;;;;11.35;5.05;;;;;;;;;;5032441;28;20065;-44
2023/03/01 04:18:14;;;;;;;10.15;5.00;;;;;;;;;;5032891;28;20136;-45
2023/03/01 04:20:41;;;;;;;12.35;5.28;;;;;;;;;;5032805;28;20025;-44
2023/03/01 04:23:13;;;;;;;13.32;5.38;;;;;;;;;;5032681;28;20105;-44
2023/03/01 04:25:39;;;;;;;;;;;;;;;;;;5033184;28;20038;-44
2023/03/01 04:28:06;;;;;;;11.63;5.60;;;;;;;;;;5032539;28;19921;-45
2023/03/01 04:30:36;;;;;;;13.00;5.25;;;;;;;;;;5032674;28;20048;-45
2023/03/01 04:33:04;;;;;;;13.60;5.65;;;;;;;;;;5032532;28;20032;-44
2023/03/01 04:35:31;;;;;;;11.43;4.97;;;;;;;;;;5032561;28;20167;-44
2023/03/01 04:37:59;;;;;;;13.00;5.10;;;;;;;;;;5032477;28;20482;-45
2023/03/01 04:40:26;;;;;;;16.42;5.40;;;;;;;;;;5032350;28;20076;-44
2023/03/01 04:42:53;;;;;;;16.90;6.15;;;;;;;;;;5032338;28;20383;-43
2023/03/01 04:45:20;;;;;;;15.52;6.03;;;;;;;;;;5032267;28;20041;-44
2023/03/01 04:47:47;;;;;;;18.40;5.55;;;;;;;;;;5031437;28;20053;-46
2023/03/01 04:50:16;;;;;;;18.35;5.90;;;;;;;;;;5021095;28;20110;-44
2023/03/01 04:52:43;;;;;;;18.63;5.60;;;;;;;;;;5034079;28;20029;-46
2023/03/01 04:55:11;;;;;;;18.40;6.03;;;;;;;;;;5052113;28;20429;-44
2023/03/01 04:57:38;;;;;;;17.38;6.05;;;;;;;;;;5052022;28;20044;-44
2023/03/01 05:00:19;;;;;;;16.08;6.00;;;;;;;;;;5051842;28;20021;-44
2023/03/01 05:02:52;;;;;;;21.48;5.93;;;;;;;;;;5051725;28;20045;-44
2023/03/01 05:05:21;;;;;;;15.48;5.82;;;;;;;;;;5051721;28;20155;-45
2023/03/01 05:07:48;;;;;;;13.27;5.47;;;;;;;;;;5052109;28;20033;-43
2023/03/01 05:10:15;;;;;;;14.07;5.45;;;;;;;;;;5051886;28;20170;-42
2023/03/01 05:12:42;;;;;;;13.32;5.50;;;;;;;;;;5051710;28;20018;-43
2023/03/01 05:15:09;;;;;;;12.45;5.32;;;;;;;;;;5051576;28;20053;-42
2023/03/01 05:17:36;;;;;;;13.40;5.80;;;;;;;;;;5051586;28;20051;-43
2023/03/01 05:20:08;;;;;;;16.67;5.25;;;;;;;;;;5051460;28;20437;-43
2023/03/01 05:22:35;;;;;;;15.20;5.38;;;;;;;;;;5051316;28;20037;-43
2023/03/01 05:25:03;;;;;;;18.52;5.53;;;;;;;;;;5051524;28;20017;-43
2023/03/01 05:27:30;;;;;;;16.25;6.10;;;;;;;;;;5051432;28;20083;-43
2023/03/01 05:29:57;;;;;;;9.27;4.93;;;;;;;;;;5051314;28;20044;-43
2023/03/01 05:32:24;;;;;;;14.88;5.40;;;;;;;;;;5051358;28;20446;-43
2023/03/01 05:34:52;;;;;;;13.90;5.30;;;;;;;;;;5033457;28;20433;-44
2023/03/01 05:37:19;;;;;;;11.05;5.07;;;;;;;;;;5051334;28;20032;-44
2023/03/01 05:39:46;;;;;;;12.48;4.90;;;;;;;;;;5051367;28;20106;-44
2023/03/01 05:42:13;;;;;;;14.50;5.47;;;;;;;;;;5051105;28;20025;-44
2023/03/01 05:44:40;;;;;;;13.25;4.85;;;;;;;;;;5051177;28;20029;-44
2023/03/01 05:47:07;;;;;;;10.75;5.10;;;;;;;;;;5051114;28;20037;-44
2023/03/01 05:49:34;;;;;;;15.70;4.90;;;;;;;;;;5051158;28;20029;-45
2023/03/01 05:52:01;;;;;;;9.98;5.05;;;;;;;;;;5050972;28;20480;-44
2023/03/01 05:54:28;;;;;;;11.90;4.97;;;;;;;;;;5051063;28;20021;-43
2023/03/01 05:56:56;;;;;;;12.52;5.15;;;;;;;;;;5051045;28;20059;-45
2023/03/01 05:59:23;;;;;;;14.80;4.85;;;;;;;;;;5050937;28;20041;-44
2023/03/01 06:01:50;;;;;;;14.65;5.45;;;;;;;;;;5049857;28;20021;-44
2023/03/01 06:04:17;;;;;;;10.15;4.43;;;;;;;;;;5050558;28;20029;-44
2023/03/01 06:06:43;;;;;;;10.98;4.78;;;;;;;;;;5050853;28;20041;-43
2023/03/01 06:09:11;;;;;;;9.63;5.07;;;;;;;;;;5050937;28;20027;-43
2023/03/01 06:11:38;;;;;;;11.75;4.95;;;;;;;;;;5051105;28;20021;-43
2023/03/01 06:14:06;;;;;;;9.38;4.55;;;;;;;;;;5050910;28;20047;-43
2023/03/01 06:16:33;;;;;;;14.85;4.88;;;;;;;;;;5050683;28;20052;-44
2023/03/01 06:19:00;;;;;;;11.73;4.80;;;;;;;;;;5051009;28;20033;-44
2023/03/01 06:21:27;;;;;;;10.85;5.03;;;;;;;;;;5050972;28;20060;-44
2023/03/01 06:23:54;;;;;;;12.57;4.65;;;;;;;;;;5050834;28;20044;-44
2023/03/01 06:26:21;;;;;;;13.43;4.90;;;;;;;;;;5050933;28;20032;-44
2023/03/01 06:28:48;;;;;;;10.10;4.80;;;;;;;;;;5050862;28;20398;-44
2023/03/01 06:31:15;;;;;;;13.05;4.55;;;;;;;;;;5050838;28;20037;-44
2023/03/01 06:33:44;;;;;;;12.05;4.85;;;;;;;;;;5050782;28;20033;-46
2023/03/01 06:36:11;;;;;;;9.73;4.93;;;;;;;;;;5050144;28;20033;-44
2023/03/01 06:38:40;;;;;;;17.35;5.68;;;;;;;;;;5050567;28;20025;-45
2023/03/01 06:41:07;;;;;;;13.80;5.05;;;;;;;;;;5050437;28;20037;-44
2023/03/01 06:43:34;;;;;;;14.18;5.15;;;;;;;;;;5050405;28;20036;-44
2023/03/01 06:46:01;;;;;;;10.65;4.93;;;;;;;;;;5050379;28;20029;-45
2023/03/01 06:48:28;;;;;;;12.00;4.88;;;;;;;;;;5050302;28;20053;-44
2023/03/01 06:50:55;;;;;;;13.23;4.82;;;;;;;;;;5050324;28;20037;-44
2023/03/01 06:53:22;;;;;;;13.75;4.47;;;;;;;;;;5050392;28;20099;-46
2023/03/01 06:55:54;;;;;;;14.70;5.15;;;;;;;;;;5050488;28;20053;-49
2023/03/01 06:58:21;;;;;;;15.25;5.22;;;;;;;;;;5050457;28;20108;-47
2023/03/01 07:00:48;;;;;;;11.23;4.97;;;;;;;;;;5050420;28;20032;-49
2023/03/01 07:03:15;;;;;;;11.05;4.90;;;;;;;;;;5050322;28;20020;-44
2023/03/01 07:05:42;;;;;;;9.55;4.57;;;;;;;;;;5050414;28;20544;-44
2023/03/01 07:08:09;;;;;;;9.35;4.57;;;;;;;;;;5050287;28;20478;-44
2023/03/01 07:10:36;;;;;;;11.20;4.53;;;;;;;;;;5050416;28;20604;-44
2023/03/01 07:13:03;;;;;;;14.38;4.75;;;;;;;;;;5053970;28;20029;-44
2023/03/01 07:15:30;;;;;;;10.13;4.82;;;;;;;;;;5053833;28;20048;-44
2023/03/01 07:17:57;;;;;;;14.88;5.20;;;;;;;;;;5053967;28;20033;-44
2023/03/01 07:20:25;;;;;;;11.20;4.63;;;;;;;;;;5053820;28;20060;-44
2023/03/01 07:22:52;;;;;;;10.32;4.72;;;;;;;;;;5053683;28;20410;-44
2023/03/01 07:25:19;;;;;;;10.68;4.82;;;;;;;;;;5035840;28;20554;-44
2023/03/01 07:27:50;;;;;;;15.15;5.07;;;;;;;;;;5053755;28;20044;-44
2023/03/01 07:30:17;;;;;;;12.40;4.75;;;;;;;;;;5053727;28;20040;-44
2023/03/01 07:32:45;;;;;;;13.25;5.38;;;;;;;;;;5053618;28;20045;-44
2023/03/01 07:35:12;;;;;;;13.27;4.70;;;;;;;;;;5053648;28;20041;-45
2023/03/01 07:37:39;;;;;;;11.30;4.60;;;;;;;;;;5053513;28;20033;-44
2023/03/01 07:40:06;;;;;;;12.25;4.75;;;;;;;;;;5053562;28;20037;-44
2023/03/01 07:42:33;;;;;;;11.13;4.45;;;;;;;;;;5053417;28;20479;-43
2023/03/01 07:45:00;;;;;;;12.63;4.88;;;;;;;;;;5053449;28;20025;-44
2023/03/01 07:47:27;;;;;;;9.93;4.88;;;;;;;;;;5053306;28;20036;-45
2023/03/01 07:49:54;;;;;;;11.32;4.88;;;;;;;;;;5053334;28;20091;-46
2023/03/01 07:52:21;;;;;;;10.82;4.70;;;;;;;;;;5053183;28;20029;-44
2023/03/01 07:54:48;;;;;;;11.40;4.95;;;;;;;;;;5053295;28;20025;-44
2023/03/01 07:57:15;;;;;;;13.70;4.70;;;;;;;;;;5053245;28;20025;-44
2023/03/01 07:59:42;;;;;;;13.60;5.80;;;;;;;;;;5053132;28;20052;-44
2023/03/01 08:02:09;;;;;;;14.73;5.90;;;;;;;;;;5052973;28;20028;-44
2023/03/01 08:04:36;;;;;;;15.82;6.97;;;;;;;;;;5053070;28;20108;-44
2023/03/01 08:07:05;;;;;;;54.30;21.52;;;;;;;;;;5052949;28;20086;-44
2023/03/01 08:09:32;;;;;;;33.47;18.67;;;;;;;;;;5052960;28;20033;-43
2023/03/01 08:11:59;;;;;;;19.52;8.77;;;;;;;;;;5052957;28;20040;-46
2023/03/01 08:14:26;;;;;;;25.77;12.23;;;;;;;;;;5052798;28;20536;-44
2023/03/01 08:16:54;;;;;;;23.77;10.10;;;;;;;;;;5052434;28;20083;-44
2023/03/01 08:19:21;;;;;;;22.95;11.10;;;;;;;;;;5052696;28;20041;-44
2023/03/01 08:21:48;;;;;;;21.55;10.85;;;;;;;;;;5052472;28;20024;-46
2023/03/01 08:24:15;;;;;;;23.23;11.32;;;;;;;;;;5051675;28;20104;-44
2023/03/01 08:26:42;;;;;;;28.30;11.60;;;;;;;;;;5052667;28;20463;-45
2023/03/01 08:29:09;;;;;;;21.33;10.77;;;;;;;;;;5052532;28;20086;-44
2023/03/01 08:31:37;;;;;;;19.08;10.43;;;;;;;;;;5052640;28;20048;-44
2023/03/01 08:34:09;;;;;;;22.80;12.23;;;;;;;;;;5052469;28;20020;-44
2023/03/01 08:36:38;;;;;;;17.55;10.35;;;;;;;;;;5052539;28;20478;-43
2023/03/01 08:39:05;;;;;;;23.13;11.02;;;;;;;;;;5052646;28;20078;-43
2023/03/01 08:41:32;;;;;;;21.35;11.07;;;;;;;;;;5052392;28;20414;-42
2023/03/01 08:43:59;;;;;;;20.70;10.82;;;;;;;;;;5052259;28;20021;-45
2023/03/01 08:46:27;;;;;;;22.48;10.38;;;;;;;;;;5052637;28;20747;-43
2023/03/01 08:48:54;;;;;;;24.00;11.32;;;;;;;;;;5052292;28;20546;-43
2023/03/01 08:51:21;;;;;;;20.95;11.00;;;;;;;;;;5052316;28;20110;-43
2023/03/01 08:53:49;;;;;;;18.20;10.60;;;;;;;;;;5052069;28;20041;-45
2023/03/01 08:56:16;;;;;;;22.48;10.85;;;;;;;;;;5051706;28;20041;-43
2023/03/01 08:59:08;;;;;;;22.23;10.70;;;;;;;;;;5052613;28;20028;-43
2023/03/01 09:01:36;;;;;;;21.17;10.88;;;;;;;;;;5049881;28;20036;-44
2023/03/01 09:04:04;;;;;;;17.55;10.23;;;;;;;;;;5051607;28;20171;-44
2023/03/01 09:06:32;;;;;;;17.08;9.55;;;;;;;;;;5051796;28;20601;-44
2023/03/01 09:08:59;;;;;;;23.48;9.50;;;;;;;;;;5051547;28;20044;-43
2023/03/01 09:11:26;;;;;;;20.75;9.75;;;;;;;;;;5051716;28;20029;-44
2023/03/01 09:13:53;;;;;;;21.40;9.73;;;;;;;;;;5051739;28;20032;-45
2023/03/01 09:16:21;;;;;;;19.50;9.20;;;;;;;;;;5051552;28;20048;-43
2023/03/01 09:18:52;;;;;;;20.65;9.75;;;;;;;;;;5051752;28;20029;-43
2023/03/01 09:21:20;;;;;;;21.30;9.45;;;;;;;;;;5051714;28;20096;-42
2023/03/01 09:23:48;;;;;;;23.85;9.60;;;;;;;;;;5051500;28;20021;-45
2023/03/01 09:26:20;;;;;;;20.55;9.82;;;;;;;;;;5051477;28;20360;-45
2023/03/01 09:28:48;;;;;;;21.52;9.38;;;;;;;;;;5051290;28;20087;-43
2023/03/01 09:31:15;;;;;;;20.17;9.25;;;;;;;;;;5051613;28;20037;-44
2023/03/01 09:33:43;;;;;;;23.88;10.30;;;;;;;;;;5051022;28;20075;-43
2023/03/01 09:36:14;;;;;;;22.17;8.70;;;;;;;;;;5051448;28;20391;-43
2023/03/01 09:38:41;;;;;;;22.80;10.00;;;;;;;;;;5051408;28;20033;-43
2023/03/01 09:41:27;;;;;;;22.48;9.52;;;;;;;;;;5051343;28;20049;-43
2023/03/01 09:43:59;;;;;;;29.50;9.27;;;;;;;;;;5051196;28;20032;-43
2023/03/01 09:46:26;;;;;;;25.25;9.05;;;;;;;;;;5051432;28;20566;-42
2023/03/01 09:48:57;;;;;;;26.83;9.50;;;;;;;;;;5050616;28;20132;-43
2023/03/01 09:51:30;;;;;;;28.83;9.75;;;;;;;;;;5051178;28;20029;-43
2023/03/01 09:54:00;;;;;;;32.08;10.48;;;;;;;;;;5051236;28;20447;-42
2023/03/01 09:56:46;;;;;;;38.13;11.02;;;;;;;;;;5051069;28;20487;-43
2023/03/01 09:59:13;;;;;;;52.83;11.18;;;;;;;;;;5051026;28;20510;-44
2023/03/01 10:01:53;;;;;;;62.53;12.70;;;;;;;;;;5050956;28;20383;-44
2023/03/01 10:04:38;;;;;;;57.55;11.90;;;;;;;;;;5050928;28;20060;-46
2023/03/01 10:07:18;;;;;;;63.47;11.85;;;;;;;;;;5051019;28;20074;-44
2023/03/01 10:09:46;;;;;;;59.17;13.23;;;;;;;;;;5050993;28;20029;-44
2023/03/01 10:12:18;;;;;;;65.88;13.00;;;;;;;;;;5039819;28;20112;-44
2023/03/01 10:14:46;;;;;;;;;;;;;;;;;;5031125;28;20141;-43
2023/03/01 10:17:25;;;;;;;83.78;15.75;;;;;;;;;;5030615;28;19909;-44
2023/03/01 10:19:52;;;;;;;117.57;17.30;;;;;;;;;;5030322;28;20495;-42
2023/03/01 10:22:23;;;;;;;90.10;15.60;;;;;;;;;;5011537;28;20042;-44
2023/03/01 10:24:51;;;;;;;243.77;27.23;;;;;;;;;;5011018;28;20069;-45
2023/03/01 10:27:23;;;;;;;310.85;34.13;;;;;;;;;;5011046;28;20030;-43
2023/03/01 10:29:50;;;;;;;429.13;46.53;;;;;;;;;;5010855;28;20041;-44
2023/03/01 10:32:18;;;;;;;374.45;44.90;;;;;;;;;;5010863;28;20105;-42
2023/03/01 10:34:45;;;;;;;346.02;39.72;;;;;;;;;;5011162;28;20033;-42
2023/03/01 10:37:14;;;;;;;405.33;47.67;;;;;;;;;;5011149;28;20044;-42
2023/03/01 10:39:59;;;;;;;477.60;53.92;;;;;;;;;;5012072;28;20022;-43
2023/03/01 10:42:36;;;;;;;512.22;54.42;;;;;;;;;;5016209;28;20030;-42
2023/03/01 10:45:19;;;;;;;552.80;59.80;;;;;;;;;;5010791;28;20033;-44
2023/03/01 10:47:45;;;;;;;547.22;59.20;;;;;;;;;;5014187;28;20041;-44
2023/03/01 10:50:20;;;;;;;580.05;62.30;;;;;;;;;;4997341;28;20060;-44
2023/03/01 10:52:58;;;;;;;460.85;55.22;;;;;;;;;;5014745;28;20029;-44
2023/03/01 10:55:36;;;;;;;465.40;57.53;;;;;;;;;;5014481;28;20033;-42
2023/03/01 10:58:22;;;;;;;541.38;63.35;;;;;;;;;;5014682;28;20030;-43
2023/03/01 11:00:50;;;;;;;497.55;58.10;;;;;;;;;;5014579;28;20033;-44
2023/03/01 11:03:19;;;;;;;505.77;56.50;;;;;;;;;;5022355;28;20064;-42
2023/03/01 11:06:03;;;;;;;513.67;54.88;;;;;;;;;;5023288;28;20044;-44
2023/03/01 11:08:48;;;;;;;387.67;43.45;;;;;;;;;;5024653;28;20037;-42
2023/03/01 11:11:32;;;;;;;401.42;42.75;;;;;;;;;;5025055;28;20037;-45
2023/03/01 11:14:28;;;;;;;314.58;36.38;;;;;;;;;;5024433;28;20027;-44
2023/03/01 11:17:04;;;;;;;234.10;29.83;;;;;;;;;;5012119;28;20501;-46
2023/03/01 11:19:32;;;;;;;224.73;27.20;;;;;;;;;;5031227;28;20067;-44
2023/03/01 11:22:17;;;;;;;306.85;33.97;;;;;;;;;;5032699;28;20064;-42
2023/03/01 11:24:44;;;;;;;257.60;30.92;;;;;;;;;;5031213;28;20026;-42
2023/03/01 11:27:20;;;;;;;194.98;24.35;;;;;;;;;;5032916;28;20505;-43
2023/03/01 11:29:51;;;;;;;342.25;29.75;;;;;;;;;;5032267;28;20495;-35
2023/03/01 11:32:19;;;;;;;254.18;25.65;;;;;;;;;;5027972;28;20028;-41
2023/03/01 11:34:49;;;;;;;215.68;19.67;;;;;;;;;;5031979;28;20033;-39
2023/03/01 11:37:27;;;;;;;171.68;18.60;;;;;;;;;;5032317;28;20059;-37
2023/03/01 11:40:11;;;;;;;81.78;10.52;;;;;;;;;;5032175;28;20499;-38
2023/03/01 11:42:53;;;;;;;71.55;8.63;;;;;;;;;;5031769;28;20037;-36
2023/03/01 11:45:20;;;;;;;404.27;24.15;;;;;;;;;;5014133;28;20489;-37
2023/03/01 11:48:02;;;;;;;206.05;15.30;;;;;;;;;;5031701;28;20454;-39
2023/03/01 11:50:29;;;;;;;116.20;8.32;;;;;;;;;;5030015;28;20025;-37
2023/03/01 11:53:10;;;;;;;63.42;6.15;;;;;;;;;;5031784;28;20029;-39
2023/03/01 11:55:45;;;;;;;202.48;21.60;;;;;;;;;;5012675;28;20038;-39
2023/03/01 11:58:12;;;;;;;58.10;6.60;;;;;;;;;;5018423;28;20052;-37
2023/03/01 12:00:56;;;;;;;118.65;10.48;;;;;;;;;;5031783;28;20041;-38
2023/03/01 12:03:29;;;;;;;44.20;4.03;;;;;;;;;;5011920;28;20033;-36
2023/03/01 12:05:58;;;;;;;;;;;;;;;;;;5030246;28;20027;-37
2023/03/01 12:08:34;;;;;;;37.95;5.10;;;;;;;;;;5031942;28;19927;-38
2023/03/01 12:11:14;;;;;;;107.65;9.55;;;;;;;;;;5032860;28;20029;-38
2023/03/01 12:13:44;;;;;;;47.80;4.80;;;;;;;;;;5032886;28;20134;-40
2023/03/01 12:16:29;;;;;;;36.10;3.25;;;;;;;;;;5032396;28;20431;-38
2023/03/01 12:18:55;;;;;;;37.47;3.40;;;;;;;;;;5032885;28;20053;-37
2023/03/01 12:21:25;;;;;;;35.45;2.35;;;;;;;;;;5032845;28;20500;-37
2023/03/01 12:24:10;;;;;;;37.38;2.50;;;;;;;;;;5032662;28;20105;-37
2023/03/01 12:26:46;;;;;;;27.80;3.63;;;;;;;;;;5032676;28;20479;-37
2023/03/01 12:29:24;;;;;;;67.90;7.05;;;;;;;;;;5032551;28;20256;-38
2023/03/01 12:31:51;;;;;;;52.90;6.15;;;;;;;;;;5032490;28;20028;-38
2023/03/01 12:34:18;;;;;;;36.45;3.85;;;;;;;;;;5032311;28;20029;-38
2023/03/01 12:37:15;;;;;;;26.67;2.42;;;;;;;;;;5032070;28;20025;-40
2023/03/01 12:39:45;;;;;;;58.88;5.65;;;;;;;;;;5032442;28;20033;-39
2023/03/01 12:42:32;;;;;;;31.52;3.55;;;;;;;;;;5032113;28;20036;-39
2023/03/01 12:45:06;;;;;;;38.80;3.97;;;;;;;;;;5032194;28;20041;-39
2023/03/01 12:47:36;;;;;;;56.00;4.57;;;;;;;;;;5032191;28;20029;-39
2023/03/01 12:50:05;;;;;;;24.17;2.88;;;;;;;;;;5020270;28;20072;-37
2023/03/01 12:52:50;;;;;;;15.93;1.85;;;;;;;;;;5012389;28;20118;-37
2023/03/01 12:55:29;;;;;;;24.17;2.38;;;;;;;;;;5018660;28;20108;-39
2023/03/01 12:58:20;;;;;;;35.00;2.75;;;;;;;;;;5021154;28;20330;-40
2023/03/01 13:01:00;;;;;;;44.53;4.25;;;;;;;;;;5022551;28;20832;-39
2023/03/01 13:03:32;;;;;;;49.05;3.63;;;;;;;;;;5022534;28;20025;-40
2023/03/01 13:06:19;;;;;;;21.15;2.25;;;;;;;;;;5022842;28;20025;-39
2023/03/01 13:08:54;;;;;;;27.98;2.25;;;;;;;;;;4993479;28;20034;-39
2023/03/01 13:11:24;;;;;;;26.30;1.98;;;;;;;;;;5012112;28;20053;-40
2023/03/01 13:13:54;;;;;;;25.85;2.17;;;;;;;;;;5011864;28;20057;-39
2023/03/01 13:16:30;;;;;;;28.55;3.55;;;;;;;;;;5026571;28;20049;-39
2023/03/01 13:19:15;;;;;;;60.35;6.35;;;;;;;;;;5024456;28;20059;-37
2023/03/01 13:21:43;;;;;;;87.65;8.05;;;;;;;;;;5019362;28;20065;-39
2023/03/01 13:24:28;;;;;;;53.95;4.75;;;;;;;;;;5028509;28;20021;-37
2023/03/01 13:27:07;;;;;;;73.90;5.15;;;;;;;;;;5021987;28;20041;-41
2023/03/01 13:29:46;;;;;;;55.83;4.30;;;;;;;;;;5020076;28;20116;-40
2023/03/01 13:32:33;;;;;;;44.13;4.28;;;;;;;;;;5021883;28;20029;-40
2023/03/01 13:35:23;;;;;;;42.75;3.67;;;;;;;;;;5019846;28;20029;-40
2023/03/01 13:37:50;;;;;;;60.17;3.63;;;;;;;;;;5010028;28;20573;-40
2023/03/01 13:40:20;;;;;;;29.70;2.03;;;;;;;;;;5027433;28;20083;-37
2023/03/01 13:42:48;;;;;;;37.97;2.70;;;;;;;;;;5020998;28;20046;-37
2023/03/01 13:45:34;;;;;;;74.65;5.82;;;;;;;;;;5019680;28;20049;-40
2023/03/01 13:48:04;;;;;;;60.13;5.68;;;;;;;;;;5021695;28;20043;-40
2023/03/01 13:50:34;;;;;;;77.03;6.57;;;;;;;;;;5021508;28;20067;-40
2023/03/01 13:53:04;;;;;;;40.28;4.15;;;;;;;;;;5021678;28;20037;-39
2023/03/01 13:55:45;;;;;;;24.92;2.35;;;;;;;;;;5021509;28;20033;-40
2023/03/01 13:58:29;;;;;;;19.48;1.90;;;;;;;;;;5029993;28;20037;-37
2023/03/01 14:00:57;;;;;;;54.88;4.80;;;;;;;;;;5025109;28;20521;-40
2023/03/01 14:03:25;;;;;;;20.67;2.42;;;;;;;;;;5022983;28;20401;-39
2023/03/01 14:06:06;;;;;;;48.60;4.75;;;;;;;;;;5021417;28;20032;-38
2023/03/01 14:08:33;;;;;;;83.18;7.72;;;;;;;;;;5015817;28;20046;-39
2023/03/01 14:11:18;;;;;;;52.60;5.00;;;;;;;;;;5019455;28;20028;-40
2023/03/01 14:13:57;;;;;;;26.13;3.08;;;;;;;;;;5021412;28;20047;-40
2023/03/01 14:16:24;;;;;;;22.13;2.65;;;;;;;;;;5021229;28;20503;-40
2023/03/01 14:19:03;;;;;;;28.02;1.58;;;;;;;;;;5016227;28;20468;-41
2023/03/01 14:21:31;;;;;;;16.67;1.15;;;;;;;;;;5024606;28;20033;-41
2023/03/01 14:23:59;;;;;;;83.55;8.63;;;;;;;;;;5024728;28;20041;-38
2023/03/01 14:26:26;;;;;;;72.10;9.15;;;;;;;;;;5023342;28;20488;-40
2023/03/01 14:28:53;;;;;;;70.53;7.38;;;;;;;;;;5024786;28;20037;-40
2023/03/01 14:31:32;;;;;;;47.17;6.13;;;;;;;;;;5024890;28;20026;-37
2023/03/01 14:34:00;;;;;;;62.58;7.78;;;;;;;;;;5025305;28;20033;-40
2023/03/01 14:36:28;;;;;;;46.03;4.13;;;;;;;;;;5025298;28;20096;-39
2023/03/01 14:38:55;;;;;;;29.65;2.30;;;;;;;;;;5023916;28;20850;-40
2023/03/01 14:41:24;;;;;;;25.42;1.98;;;;;;;;;;5023448;28;20152;-38
2023/03/01 14:43:52;;;;;;;58.30;4.20;;;;;;;;;;5025055;28;20083;-40